createdAt,value
2018-12-22T00:00:58.215Z,74.88
2018-12-22T00:06:02.831Z,73.92
2018-12-22T00:11:07.120Z,73.23
2018-12-22T00:16:11.488Z,73.50
2018-12-22T00:21:15.890Z,72.73
2018-12-22T00:26:20.291Z,71.69
2018-12-22T00:31:25.209Z,71.35
2018-12-22T00:36:32.182Z,70.09
2018-12-22T00:41:36.589Z,70.54
2018-12-22T00:46:40.844Z,69.50
2018-12-22T00:51:45.220Z,69.11
2018-12-22T00:56:49.606Z,68.70
2018-12-22T01:01:54.106Z,67.60
2018-12-22T01:06:58.685Z,67.89
2018-12-22T01:12:02.972Z,67.83
2018-12-22T01:17:07.174Z,67.93
2018-12-22T01:22:11.572Z,67.62
2018-12-22T01:27:15.936Z,66.97
2018-12-22T01:32:20.441Z,66.76
2018-12-22T01:37:24.903Z,67.11
2018-12-22T01:42:30.149Z,66.93
2018-12-22T01:47:34.996Z,67.30
2018-12-22T01:52:39.388Z,67.78
2018-12-22T01:57:43.648Z,69.55
2018-12-22T02:02:47.783Z,72.05
2018-12-22T02:07:52.226Z,72.98
2018-12-22T02:12:56.492Z,75.44
2018-12-22T02:18:00.729Z,76.82
2018-12-22T02:23:05.145Z,77.37
2018-12-22T02:28:09.333Z,77.21
2018-12-22T02:33:14.284Z,77.02
2018-12-22T02:38:19.261Z,77.73
2018-12-22T02:43:23.373Z,79.57
2018-12-22T02:48:28.293Z,80.36
2018-12-22T02:53:33.392Z,81.07
2018-12-22T02:58:37.819Z,81.82
2018-12-22T03:03:42.334Z,82.24
2018-12-22T03:08:46.802Z,82.91
2018-12-22T03:13:51.730Z,83.71
2018-12-22T03:18:55.900Z,84.47
2018-12-22T03:24:00.092Z,86.71
2018-12-22T03:29:04.472Z,89.10
2018-12-22T03:34:08.727Z,90.97
2018-12-22T03:39:12.944Z,90.92
2018-12-22T03:44:17.272Z,92.86
2018-12-22T03:49:22.535Z,93.16
2018-12-22T03:54:26.747Z,92.54
2018-12-22T03:59:31.074Z,91.21
2018-12-22T04:04:35.347Z,90.31
2018-12-22T04:09:39.678Z,90.53
2018-12-22T04:14:43.946Z,90.29
2018-12-22T04:19:48.274Z,91.07
2018-12-22T04:24:54.353Z,92.30
2018-12-22T04:29:58.629Z,93.43
2018-12-22T04:35:02.929Z,93.68
2018-12-22T04:40:07.123Z,93.90
2018-12-22T04:45:12.268Z,94.66
2018-12-22T04:50:20.721Z,94.75
2018-12-22T04:55:25.035Z,95.13
2018-12-22T05:00:29.211Z,94.72
2018-12-22T05:05:33.452Z,94.67
2018-12-22T05:10:37.638Z,94.73
2018-12-22T05:15:41.760Z,94.09
2018-12-22T05:20:46.161Z,93.49
2018-12-22T05:25:50.421Z,93.57
2018-12-22T05:30:55.009Z,92.32
2018-12-22T05:36:01.195Z,92.26
2018-12-22T05:41:08.802Z,91.87
2018-12-22T05:46:31.975Z,91.82
2018-12-22T05:51:37.184Z,92.05
2018-12-22T05:56:41.358Z,92.22
2018-12-22T06:01:45.730Z,92.46
2018-12-22T06:06:50.420Z,92.52
2018-12-22T06:11:54.877Z,93.61
2018-12-22T06:17:00.239Z,94.13
2018-12-22T06:22:04.593Z,94.50
2018-12-22T06:27:08.832Z,94.74
2018-12-22T06:32:13.253Z,94.97
2018-12-22T06:37:17.628Z,95.57
2018-12-22T06:42:22.023Z,96.09
2018-12-22T06:47:26.229Z,97.21
2018-12-22T06:52:30.667Z,97.89
2018-12-22T06:57:35.129Z,98.37
2018-12-22T07:02:39.737Z,98.73
2018-12-22T07:07:43.849Z,98.00
2018-12-22T07:12:48.297Z,97.75
2018-12-22T07:17:52.563Z,96.26
2018-12-22T07:22:57.217Z,94.75
2018-12-22T07:28:01.557Z,92.76
2018-12-22T07:33:05.861Z,91.95
2018-12-22T07:38:10.436Z,92.04
2018-12-22T07:43:14.687Z,95.22
2018-12-22T07:48:19.116Z,96.87
2018-12-22T07:53:24.657Z,98.36
2018-12-22T07:58:29.268Z,99.69
2018-12-22T08:03:33.662Z,100.00
2018-12-22T08:08:38.203Z,100.00
2018-12-22T08:13:42.400Z,100.00
2018-12-22T08:18:46.678Z,100.00
2018-12-22T08:23:50.923Z,100.00
2018-12-22T08:28:55.455Z,100.00
2018-12-22T08:33:59.755Z,100.00
2018-12-22T08:39:05.742Z,100.00
2018-12-22T08:44:10.443Z,100.00
2018-12-22T08:49:14.787Z,100.00
2018-12-22T08:54:18.981Z,100.00
2018-12-22T08:59:23.493Z,100.00
2018-12-22T09:04:27.828Z,100.00
2018-12-22T09:09:32.550Z,100.00
2018-12-22T09:14:36.804Z,100.00
2018-12-22T09:19:41.860Z,100.00
2018-12-22T09:24:46.938Z,100.00
2018-12-22T09:29:52.604Z,100.00
2018-12-22T09:34:57.038Z,100.00
2018-12-22T09:40:01.432Z,100.00
2018-12-22T09:45:07.090Z,100.00
2018-12-22T09:50:12.824Z,100.00
2018-12-22T09:55:17.543Z,100.00
2018-12-22T10:00:22.194Z,100.00
2018-12-22T10:05:26.755Z,100.00
2018-12-22T10:10:31.207Z,100.00
2018-12-22T10:15:36.498Z,100.00
2018-12-22T10:20:41.072Z,100.00
2018-12-22T10:25:54.710Z,100.00
2018-12-22T10:31:00.042Z,100.00
2018-12-22T10:36:04.492Z,100.00
2018-12-22T10:41:08.778Z,100.00
2018-12-22T10:46:13.561Z,100.00
2018-12-22T10:51:24.293Z,100.00
2018-12-22T10:56:24.429Z,100.00
2018-12-22T11:01:28.918Z,100.00
2018-12-22T11:06:33.706Z,98.53
2018-12-22T11:11:38.117Z,97.41
2018-12-22T11:16:42.793Z,97.65
2018-12-22T11:21:47.118Z,96.30
2018-12-22T11:26:51.337Z,96.46
2018-12-22T11:31:55.543Z,97.31
2018-12-22T11:36:59.911Z,97.42
2018-12-22T11:42:04.323Z,97.94
2018-12-22T11:47:19.086Z,96.71
2018-12-22T11:52:23.609Z,97.86
2018-12-22T11:57:27.781Z,97.78
2018-12-22T12:02:32.089Z,95.17
2018-12-22T12:07:36.553Z,95.98
2018-12-22T12:12:40.899Z,95.90
2018-12-22T12:18:14.418Z,95.84
2018-12-22T12:23:18.661Z,96.31
2018-12-22T12:28:23.009Z,96.06
2018-12-22T12:33:27.349Z,97.37
2018-12-22T12:38:31.989Z,97.38
2018-12-22T12:43:36.189Z,97.98
2018-12-22T12:48:40.431Z,97.39
2018-12-22T12:53:45.157Z,97.42
2018-12-22T12:58:50.301Z,97.49
2018-12-22T13:03:54.626Z,95.94
2018-12-22T13:08:58.826Z,95.87
2018-12-22T13:14:11.341Z,96.13
2018-12-22T13:19:16.951Z,95.81
2018-12-22T13:24:26.386Z,95.79
2018-12-22T13:29:31.014Z,95.34
2018-12-22T13:34:35.574Z,94.94
2018-12-22T13:39:40.733Z,94.46
2018-12-22T13:44:45.704Z,95.00
2018-12-22T13:49:50.769Z,94.78
2018-12-22T13:54:55.342Z,94.12
2018-12-22T13:59:59.778Z,93.41
2018-12-22T14:05:05.258Z,94.31
2018-12-22T14:10:11.114Z,93.99
2018-12-22T14:15:18.473Z,94.22
2018-12-22T14:20:24.043Z,95.17
2018-12-22T14:25:30.187Z,94.45
2018-12-22T14:30:34.844Z,94.73
2018-12-22T14:35:44.881Z,96.61
2018-12-22T14:40:50.479Z,96.44
2018-12-22T14:45:55.484Z,97.05
2018-12-22T14:50:59.833Z,97.02
2018-12-22T14:56:05.180Z,98.32
2018-12-22T15:01:11.143Z,97.97
2018-12-22T15:06:21.559Z,98.85
2018-12-22T15:11:26.642Z,99.19
2018-12-22T15:16:34.937Z,99.54
2018-12-22T15:21:39.468Z,100.00
2018-12-22T15:26:44.107Z,100.00
2018-12-22T15:31:48.721Z,100.00
2018-12-22T15:36:53.527Z,99.86
2018-12-22T15:42:00.027Z,99.97
2018-12-22T15:47:06.984Z,100.00
2018-12-22T15:52:15.345Z,100.00
2018-12-22T15:57:23.635Z,100.00
2018-12-22T16:02:37.139Z,100.00
2018-12-22T16:07:42.501Z,100.00
2018-12-22T16:13:06.757Z,100.00
2018-12-22T16:18:12.821Z,100.00
2018-12-22T16:23:18.933Z,100.00
2018-12-22T16:28:27.579Z,100.00
2018-12-22T16:33:52.808Z,100.00
2018-12-22T16:39:00.357Z,100.00
2018-12-22T16:44:07.591Z,100.00
2018-12-22T16:49:19.255Z,100.00
2018-12-22T16:54:33.503Z,100.00
2018-12-22T16:59:38.143Z,100.00
2018-12-22T17:04:44.873Z,100.00
2018-12-22T17:09:50.186Z,100.00
2018-12-22T17:14:55.075Z,100.00
2018-12-22T17:19:59.813Z,100.00
2018-12-22T17:25:15.401Z,100.00
2018-12-22T17:30:20.573Z,100.00
2018-12-22T17:35:25.179Z,100.00
2018-12-22T17:40:33.931Z,100.00
2018-12-22T17:45:49.117Z,100.00
2018-12-22T17:56:18.040Z,100.00
2018-12-22T18:01:22.590Z,100.00
2018-12-22T18:06:29.506Z,100.00
2018-12-22T18:17:01.766Z,100.00
2018-12-22T18:22:09.934Z,100.00
2018-12-22T18:27:15.710Z,100.00
2018-12-22T18:32:21.376Z,100.00
2018-12-22T18:37:26.100Z,100.00
2018-12-22T18:42:37.158Z,100.00
2018-12-22T18:47:43.844Z,100.00
2018-12-22T18:52:48.548Z,99.23
2018-12-22T18:58:01.162Z,98.55
2018-12-22T19:03:07.580Z,97.52
2018-12-22T19:08:14.760Z,97.83
2018-12-22T19:13:22.345Z,98.42
2018-12-22T19:18:30.261Z,99.31
2018-12-22T19:23:35.528Z,99.34
2018-12-22T19:28:39.931Z,99.12
2018-12-22T19:33:53.308Z,98.84
2018-12-22T19:38:56.038Z,98.47
2018-12-22T19:44:03.283Z,97.97
2018-12-22T19:49:11.918Z,98.04
2018-12-22T19:54:23.073Z,98.88
2018-12-22T19:59:28.484Z,99.47
2018-12-22T20:04:33.301Z,99.48
2018-12-22T20:09:37.901Z,99.90
2018-12-22T20:14:42.657Z,99.56
2018-12-22T20:19:47.947Z,100.00
2018-12-22T20:24:53.680Z,100.00
2018-12-22T20:29:59.173Z,100.00
2018-12-22T20:35:03.793Z,100.00
2018-12-22T20:40:08.835Z,100.00
2018-12-22T20:45:14.459Z,100.00
2018-12-22T20:50:18.997Z,100.00
2018-12-22T20:55:23.537Z,100.00
2018-12-22T21:00:28.105Z,100.00
2018-12-22T21:05:33.066Z,100.00
2018-12-22T21:10:38.459Z,100.00
2018-12-22T21:15:43.206Z,100.00
2018-12-22T21:20:48.131Z,100.00
2018-12-22T21:25:53.407Z,98.96
2018-12-22T21:30:58.015Z,98.73
2018-12-22T21:36:02.510Z,97.96
2018-12-22T21:41:07.505Z,96.82
2018-12-22T21:46:13.424Z,96.31
2018-12-22T21:51:22.789Z,95.35
2018-12-22T21:56:30.129Z,95.22
2018-12-22T22:01:38.292Z,95.08
2018-12-22T22:17:43.520Z,94.25
2018-12-22T22:22:48.157Z,94.25
2018-12-22T22:27:53.902Z,94.20
2018-12-22T22:32:59.780Z,93.53
2018-12-22T22:38:04.176Z,91.51
2018-12-22T22:43:08.678Z,91.07
2018-12-22T22:48:13.461Z,90.75
2018-12-22T22:53:20.974Z,90.50
2018-12-22T22:58:25.282Z,90.22
2018-12-22T23:03:30.459Z,90.37
2018-12-22T23:14:03.113Z,90.40
2018-12-22T23:19:08.021Z,90.04
2018-12-22T23:24:12.739Z,90.08
2018-12-22T23:50:10.849Z,89.76
2018-12-22T23:55:20.146Z,90.42
